Time;durP1;ratioP1;P1;durP2;ratioP2;P2;SDS_P1;SDS_P2;PMS_P1;PMS_P2;Temp;Humidity;BMP_temperature;BMP_pressure;BME280_temperature;BME280_humidity;BME280_pressure;Samples;Min_cycle;Max_cycle;Signal;HPM_P1;HPM_P2
2022/07/21 00:00:40;;;;;;;9.55;5.35;;;;;;;27.74;46.54;101788.09;4722806;30;20043;-90
2022/07/21 00:03:05;;;;;;;7.45;4.75;;;;;;;27.71;46.30;101783.16;4721733;30;20537;-88
2022/07/21 00:05:31;;;;;;;7.22;4.97;;;;;;;27.68;46.15;101768.34;4722023;30;20049;-88
2022/07/21 00:07:56;;;;;;;7.32;5.15;;;;;;;27.75;46.22;101775.53;4718872;30;20110;-87
2022/07/21 00:10:24;;;;;;;7.75;5.35;;;;;;;27.77;46.03;101779.63;4699326;30;20435;-89
2022/07/21 00:12:51;;;;;;;7.45;5.28;;;;;;;27.77;46.25;101776.97;4719372;30;20051;-90
2022/07/21 00:15:18;;;;;;;6.93;5.28;;;;;;;27.76;46.28;101771.81;4721450;30;20071;-90
2022/07/21 00:17:44;;;;;;;8.60;5.32;;;;;;;27.80;46.16;101765.00;4724735;30;20106;-89
2022/07/21 00:20:11;;;;;;;7.72;5.25;;;;;;;27.77;46.27;101771.59;4722595;30;21525;-89
2022/07/21 00:22:37;;;;;;;9.32;5.43;;;;;;;27.80;46.12;101770.34;4736415;30;20044;-90
2022/07/21 00:25:05;;;;;;;6.47;4.97;;;;;;;27.78;46.25;101767.91;4722362;30;20131;-89
2022/07/21 00:27:30;;;;;;;8.15;5.45;;;;;;;27.78;46.48;101759.03;4722562;30;20048;-89
2022/07/21 00:29:56;;;;;;;8.23;5.68;;;;;;;27.74;46.36;101755.97;4721345;30;20053;-89
2022/07/21 00:32:22;;;;;;;6.72;5.50;;;;;;;27.80;46.05;101768.50;4721196;30;20680;-89
2022/07/21 00:34:47;;;;;;;8.00;5.72;;;;;;;27.75;46.32;101764.81;4720318;30;20052;-90
2022/07/21 00:37:13;;;;;;;9.25;5.97;;;;;;;27.82;46.11;101781.66;4718137;30;20049;-88
2022/07/21 00:39:38;;;;;;;8.93;5.38;;;;;;;27.81;46.07;101783.53;4722197;30;20037;-89
2022/07/21 00:42:04;;;;;;;6.78;5.05;;;;;;;27.81;46.13;101791.56;4699635;30;20464;-89
2022/07/21 00:44:30;;;;;;;7.50;5.25;;;;;;;27.80;46.15;101791.78;4718259;30;20072;-89
2022/07/21 00:46:56;;;;;;;6.63;5.30;;;;;;;27.82;46.27;101781.66;4716749;30;20105;-90
2022/07/21 00:49:21;;;;;;;6.63;5.10;;;;;;;27.76;46.28;101799.41;4720750;30;20332;-90
2022/07/21 00:51:48;;;;;;;7.40;5.15;;;;;;;27.78;45.81;101785.81;4716236;30;20036;-89
2022/07/21 00:54:16;;;;;;;6.30;4.90;;;;;;;27.84;45.99;101790.34;4722961;30;20114;-90
2022/07/21 00:56:43;;;;;;;12.10;5.78;;;;;;;27.74;46.34;101768.53;4719899;30;20791;-90
2022/07/21 00:59:09;;;;;;;7.35;5.07;;;;;;;27.83;46.26;101797.53;4717922;30;20052;-89
2022/07/21 01:01:35;;;;;;;7.05;5.05;;;;;;;27.82;45.97;101800.41;4720551;30;20116;-89
2022/07/21 01:04:00;;;;;;;7.15;4.85;;;;;;;27.82;46.28;101809.25;4721791;30;20168;-91
2022/07/21 01:06:26;;;;;;;9.43;6.00;;;;;;;27.82;46.44;101798.56;4735569;30;20075;-89
2022/07/21 01:08:53;;;;;;;8.77;5.70;;;;;;;27.78;46.50;101783.94;4719669;30;20051;-89
2022/07/21 01:11:20;;;;;;;10.05;5.90;;;;;;;27.85;46.46;101795.47;4717315;30;20064;-90
2022/07/21 01:13:47;;;;;;;10.48;5.93;;;;;;;27.85;46.22;101800.00;4717644;30;20578;-89
2022/07/21 01:16:14;;;;;;;6.65;5.45;;;;;;;27.84;46.07;101801.03;4719040;30;20076;-90
2022/07/21 01:18:40;;;;;;;8.90;5.93;;;;;;;27.85;46.04;101805.38;4723825;30;20059;-90
2022/07/21 01:21:33;;;;;;;6.45;5.22;;;;;;;27.85;46.14;101808.88;4720732;30;20045;-89
2022/07/21 01:23:59;;;;;;;7.63;5.43;;;;;;;27.88;46.03;101807.63;4721047;30;20424;-88
2022/07/21 01:26:25;;;;;;;7.93;5.50;;;;;;;27.83;46.44;101794.88;4709153;30;20040;-88
2022/07/21 01:28:51;;;;;;;9.52;5.85;;;;;;;27.86;46.41;101797.13;4713675;30;20045;-90
2022/07/21 01:31:17;;;;;;;8.02;5.75;;;;;;;27.85;46.15;101792.81;4720463;30;20044;-89
2022/07/21 01:33:43;;;;;;;8.02;5.50;;;;;;;27.85;46.08;101797.34;4712418;30;20052;-89
2022/07/21 01:36:08;;;;;;;8.60;5.70;;;;;;;27.85;46.02;101800.00;4706957;30;20130;-89
2022/07/21 01:41:32;;;;;;;10.65;5.50;;;;;;;27.87;46.04;101806.78;4720651;30;20045;-90
2022/07/21 01:44:02;;;;;;;7.68;5.25;;;;;;;27.75;46.28;101799.63;4721474;30;20130;-91
2022/07/21 01:46:28;;;;;;;;;;;;;;;27.87;46.04;101817.50;4721287;30;20049;-91
2022/07/21 01:48:53;;;;;;;9.07;6.03;;;;;;;27.83;46.00;101802.06;4723118;30;19930;-90
2022/07/21 01:51:19;;;;;;;8.65;5.85;;;;;;;27.86;46.13;101799.81;4731569;30;20759;-90
2022/07/21 01:53:44;;;;;;;8.57;6.05;;;;;;;27.89;45.99;101791.34;4721619;30;20051;-90
2022/07/21 01:56:10;;;;;;;7.88;5.18;;;;;;;27.88;46.07;101784.34;4717742;30;20045;-90
2022/07/21 01:58:35;;;;;;;9.35;5.35;;;;;;;27.89;46.33;101769.09;4721357;30;20048;-90
2022/07/21 02:01:01;;;;;;;8.20;5.55;;;;;;;27.88;46.21;101770.97;4722335;30;20055;-91
2022/07/21 02:03:27;;;;;;;10.45;6.47;;;;;;;27.72;46.21;101738.47;4717833;30;20281;-91
2022/07/21 02:05:52;;;;;;;9.75;6.28;;;;;;;27.87;46.00;101752.44;4722835;30;20632;-90
2022/07/21 02:08:18;;;;;;;10.27;6.35;;;;;;;27.82;46.29;101728.97;4721047;30;20040;-89
2022/07/21 02:10:43;;;;;;;11.20;5.90;;;;;;;27.89;46.30;101719.06;4723918;30;20064;-90
2022/07/21 02:13:09;;;;;;;10.13;5.97;;;;;;;27.79;46.12;101697.28;4722575;30;20134;-91
2022/07/21 02:15:35;;;;;;;9.70;5.70;;;;;;;27.87;46.20;101704.25;4723086;30;20044;-91
2022/07/21 02:18:00;;;;;;;10.98;6.55;;;;;;;27.82;46.43;101698.69;4722348;30;20053;-90
2022/07/21 02:20:26;;;;;;;7.95;5.68;;;;;;;27.82;46.28;101696.84;4706886;30;20065;-91
2022/07/21 02:22:52;;;;;;;8.43;6.13;;;;;;;27.88;46.30;101716.59;4724305;30;20075;-91
2022/07/21 02:25:19;;;;;;;9.68;5.60;;;;;;;27.84;46.22;101712.72;4721890;30;20669;-90
2022/07/21 02:27:46;;;;;;;9.68;6.10;;;;;;;27.85;46.40;101725.88;4717232;30;21004;-90
2022/07/21 02:30:13;;;;;;;12.23;6.20;;;;;;;27.88;46.20;101728.13;4722073;30;20040;-91
2022/07/21 02:32:39;;;;;;;8.45;5.35;;;;;;;27.87;46.26;101715.78;4720165;30;20052;-91
2022/07/21 02:35:05;;;;;;;8.57;5.50;;;;;;;27.84;46.34;101710.88;4708401;30;20135;-90
2022/07/21 02:37:30;;;;;;;8.98;6.22;;;;;;;27.86;46.34;101698.09;4704598;30;20083;-91
2022/07/21 02:39:56;;;;;;;8.80;6.30;;;;;;;27.82;46.06;101685.31;4722762;30;20072;-91
2022/07/21 02:42:22;;;;;;;8.57;5.60;;;;;;;27.88;46.37;101696.03;4690417;30;20694;-90
2022/07/21 02:44:47;;;;;;;8.63;5.57;;;;;;;27.89;46.14;101704.88;4704956;30;20051;-90
2022/07/21 02:47:12;;;;;;;9.02;6.15;;;;;;;27.88;46.31;101689.84;4725042;30;20041;-90
2022/07/21 02:49:38;;;;;;;7.75;5.82;;;;;;;27.89;46.31;101694.16;4719134;30;20055;-90
2022/07/21 02:52:05;;;;;;;8.20;5.55;;;;;;;27.82;45.99;101694.16;4718445;30;20053;-91
2022/07/21 02:54:31;;;;;;;8.90;6.10;;;;;;;27.89;46.34;101713.72;4721745;30;20515;-89
2022/07/21 02:56:56;;;;;;;10.05;6.35;;;;;;;27.82;46.07;101702.19;4721099;30;20048;-90
2022/07/21 02:59:22;;;;;;;8.93;5.80;;;;;;;27.88;46.21;101717.44;4723560;30;20124;-91
2022/07/21 03:01:47;;;;;;;8.80;5.78;;;;;;;27.86;46.28;101727.53;4719680;30;20067;-91
2022/07/21 03:04:13;;;;;;;7.30;5.85;;;;;;;27.82;46.07;101718.25;4722558;30;20045;-90
2022/07/21 03:06:39;;;;;;;7.90;6.20;;;;;;;27.85;46.30;101723.22;4723372;30;20056;-88
2022/07/21 03:09:05;;;;;;;7.97;6.40;;;;;;;27.88;46.11;101722.78;4725111;30;20070;-88
2022/07/21 03:11:30;;;;;;;7.55;5.88;;;;;;;27.81;46.19;101724.66;4705951;30;20789;-89
2022/07/21 03:13:56;;;;;;;9.63;6.30;;;;;;;27.89;45.92;101742.34;4707989;30;20040;-89
2022/07/21 03:16:21;;;;;;;9.45;6.03;;;;;;;27.79;46.08;101729.38;4735983;30;20094;-89
2022/07/21 03:18:47;;;;;;;8.73;6.05;;;;;;;27.88;45.96;101740.69;4724035;30;20052;-88
2022/07/21 03:21:13;;;;;;;9.45;6.25;;;;;;;27.90;46.12;101746.66;4721927;30;20048;-88
2022/07/21 03:23:38;;;;;;;8.43;6.20;;;;;;;27.80;46.17;101730.22;4722711;30;20946;-88
2022/07/21 03:26:04;;;;;;;9.98;5.70;;;;;;;27.88;46.26;101741.53;4716748;30;20047;-87
2022/07/21 03:28:30;;;;;;;8.80;5.38;;;;;;;27.87;46.04;101725.69;4720155;30;20607;-89
2022/07/21 03:30:56;;;;;;;9.15;6.10;;;;;;;27.84;45.93;101710.03;4720788;30;20032;-89
2022/07/21 03:33:21;;;;;;;7.43;5.90;;;;;;;27.88;46.24;101711.25;4722011;30;20233;-88
2022/07/21 03:35:47;;;;;;;8.30;5.70;;;;;;;27.91;46.25;101710.81;4722089;30;20044;-88
2022/07/21 03:38:12;;;;;;;9.25;6.32;;;;;;;27.85;46.20;101688.41;4706825;30;20056;-88
2022/07/21 03:40:38;;;;;;;9.70;6.68;;;;;;;27.88;46.03;101688.00;4706799;30;20048;-87
2022/07/21 03:43:06;;;;;;;7.32;5.80;;;;;;;27.88;46.19;101690.66;4722066;30;20541;-88
2022/07/21 03:45:34;;;;;;;7.65;6.00;;;;;;;27.89;46.18;101688.81;4719250;30;20693;-88
2022/07/21 03:48:01;;;;;;;7.63;6.00;;;;;;;27.80;45.96;101672.16;4718946;30;20087;-90
2022/07/21 03:50:28;;;;;;;8.55;6.07;;;;;;;27.90;46.03;101690.44;4721280;30;20037;-88
2022/07/21 03:52:54;;;;;;;8.40;6.28;;;;;;;27.90;46.06;101682.41;4719398;30;20105;-88
2022/07/21 03:55:20;;;;;;;9.13;6.07;;;;;;;27.90;46.15;101685.91;4721069;30;20442;-88
2022/07/21 03:57:48;;;;;;;8.25;6.35;;;;;;;27.90;46.31;101683.25;4720201;30;20021;-88
2022/07/21 04:00:29;;;;;;;7.30;5.83;;;;;;;27.87;46.08;101675.63;4722569;30;20680;-90
2022/07/21 04:02:55;;;;;;;8.20;6.20;;;;;;;27.84;46.07;101673.41;4718824;30;20021;-89
2022/07/21 04:05:21;;;;;;;8.70;6.25;;;;;;;27.89;45.92;101681.59;4724978;30;20040;-87
2022/07/21 04:07:49;;;;;;;8.90;6.50;;;;;;;27.90;46.11;101688.59;4721352;30;20033;-86
2022/07/21 04:10:17;;;;;;;9.32;6.80;;;;;;;27.86;46.19;101684.72;4721526;30;20536;-88
2022/07/21 04:12:43;;;;;;;9.05;6.72;;;;;;;27.87;46.00;101689.03;4714655;30;20077;-88
2022/07/21 04:15:09;;;;;;;11.55;6.28;;;;;;;27.89;46.09;101686.13;4719430;30;20125;-88
2022/07/21 04:17:35;;;;;;;10.95;6.60;;;;;;;27.87;46.03;101678.31;4718028;30;20508;-88
2022/07/21 04:20:01;;;;;;;8.50;6.32;;;;;;;27.82;46.08;101672.75;4723056;30;20051;-89
2022/07/21 04:22:27;;;;;;;8.25;6.40;;;;;;;27.83;46.19;101679.78;4719768;30;20496;-88
2022/07/21 04:24:53;;;;;;;9.57;6.80;;;;;;;27.82;46.16;101678.09;4720587;30;20044;-89
2022/07/21 04:27:18;;;;;;;8.68;6.07;;;;;;;27.81;46.11;101671.13;4717639;30;20963;-89
2022/07/21 04:29:44;;;;;;;7.72;6.32;;;;;;;27.84;46.16;101675.25;4722870;30;20779;-88
2022/07/21 04:32:09;;;;;;;8.93;6.43;;;;;;;27.85;46.07;101669.69;4719089;30;20052;-88
2022/07/21 04:34:35;;;;;;;8.85;7.13;;;;;;;27.80;46.04;101661.44;4720405;30;20072;-88
2022/07/21 04:37:00;;;;;;;8.43;5.90;;;;;;;27.85;46.09;101676.91;4718159;30;20033;-88
2022/07/21 04:39:26;;;;;;;7.80;6.07;;;;;;;27.84;46.04;101676.06;4713789;30;20029;-89
2022/07/21 04:41:51;;;;;;;9.15;6.40;;;;;;;27.82;46.09;101678.09;4716959;30;20097;-89
2022/07/21 04:44:17;;;;;;;10.23;6.13;;;;;;;27.86;46.11;101686.56;4714525;30;20049;-87
2022/07/21 04:46:42;;;;;;;10.15;6.88;;;;;;;27.81;46.04;101679.16;4721987;30;20052;-89
2022/07/21 04:49:08;;;;;;;9.35;6.25;;;;;;;27.87;45.98;101681.00;4733585;30;20082;-89
2022/07/21 04:51:33;;;;;;;8.95;6.45;;;;;;;27.79;45.89;101664.34;4725173;30;20052;-89
2022/07/21 04:53:59;;;;;;;9.38;6.78;;;;;;;27.78;46.04;101668.06;4704011;30;20056;-88
2022/07/21 04:56:24;;;;;;;10.23;6.30;;;;;;;27.85;46.44;101672.34;4720690;30;20041;-89
2022/07/21 04:58:50;;;;;;;8.88;5.88;;;;;;;27.83;46.05;101671.75;4721304;30;20557;-89
2022/07/21 05:01:18;;;;;;;9.40;6.88;;;;;;;27.83;46.09;101679.78;4721930;30;20045;-89
2022/07/21 05:03:44;;;;;;;8.82;6.22;;;;;;;27.85;46.08;101682.25;4717715;30;20049;-89
2022/07/21 05:06:10;;;;;;;8.50;6.30;;;;;;;27.82;46.20;101679.97;4736832;30;20351;-89
2022/07/21 05:08:35;;;;;;;9.75;6.97;;;;;;;27.73;46.07;101655.31;4721472;30;20579;-88
2022/07/21 05:11:01;;;;;;;9.30;6.70;;;;;;;27.81;45.94;101676.47;4721269;30;20049;-87
2022/07/21 05:13:26;;;;;;;8.30;6.80;;;;;;;27.83;46.03;101670.91;4719573;30;20156;-89
2022/07/21 05:15:52;;;;;;;8.30;6.32;;;;;;;27.85;46.05;101676.91;4723308;30;20497;-89
2022/07/21 05:18:17;;;;;;;9.95;6.88;;;;;;;27.86;46.31;101678.53;4722454;30;20072;-88
2022/07/21 05:20:43;;;;;;;9.80;6.50;;;;;;;27.86;46.09;101675.84;4722849;30;20116;-89
2022/07/21 05:23:08;;;;;;;8.73;6.50;;;;;;;27.81;46.32;101667.63;4709961;30;20047;-89
2022/07/21 05:25:35;;;;;;;10.60;7.28;;;;;;;27.84;46.02;101667.22;4725986;30;20456;-88
2022/07/21 05:28:01;;;;;;;10.07;6.68;;;;;;;27.83;46.40;101663.72;4722790;30;20139;-88
2022/07/21 05:30:27;;;;;;;10.80;7.35;;;;;;;27.87;46.11;101659.59;4709230;30;20048;-87
2022/07/21 05:32:52;;;;;;;9.20;6.80;;;;;;;27.81;46.41;101641.69;4708725;30;20147;-86
2022/07/21 05:35:18;;;;;;;9.20;6.80;;;;;;;27.88;46.21;101663.91;4725117;30;20052;-88
2022/07/21 05:37:45;;;;;;;10.02;7.18;;;;;;;27.86;46.14;101654.44;4719555;30;20076;-86
2022/07/21 05:40:11;;;;;;;10.02;7.53;;;;;;;27.81;46.21;101641.69;4724366;30;20060;-88
2022/07/21 05:42:37;;;;;;;10.07;7.15;;;;;;;27.87;45.90;101651.56;4721519;30;20413;-87
2022/07/21 05:45:04;;;;;;;9.73;7.10;;;;;;;27.85;46.16;101658.97;4725056;30;20068;-87
2022/07/21 05:47:32;;;;;;;11.77;7.85;;;;;;;27.86;46.05;101655.25;4722934;30;20032;-86
2022/07/21 05:49:58;;;;;;;12.82;8.27;;;;;;;27.90;46.52;101671.72;4722660;30;20051;-87
2022/07/21 05:52:24;;;;;;;10.02;7.45;;;;;;;27.86;46.73;101665.97;4724507;30;20077;-87
2022/07/21 05:54:50;;;;;;;13.05;8.05;;;;;;;27.89;46.75;101670.88;4718258;30;20085;-86
2022/07/21 05:57:17;;;;;;;12.13;8.23;;;;;;;27.88;46.58;101663.06;4722618;30;20049;-86
2022/07/21 05:59:42;;;;;;;12.70;9.23;;;;;;;27.90;46.79;101669.84;4726691;30;20095;-88
2022/07/21 06:02:08;;;;;;;13.27;8.73;;;;;;;27.85;46.81;101658.16;4722119;30;20060;-86
2022/07/21 06:04:33;;;;;;;12.70;9.27;;;;;;;27.89;46.89;101662.84;4725041;30;20052;-85
2022/07/21 06:06:59;;;;;;;14.70;9.60;;;;;;;27.89;46.94;101656.69;4723632;30;20044;-85
2022/07/21 06:09:24;;;;;;;14.05;9.43;;;;;;;27.90;47.08;101659.16;4724709;30;20467;-85
2022/07/21 06:11:50;;;;;;;14.50;9.85;;;;;;;27.83;46.91;101647.66;4724300;30;20044;-86
2022/07/21 06:14:15;;;;;;;14.02;10.10;;;;;;;27.88;46.81;101649.69;4724559;30;20481;-85
2022/07/21 06:16:41;;;;;;;14.80;9.82;;;;;;;27.93;47.19;101657.91;4725492;30;20087;-86
2022/07/21 06:19:06;;;;;;;15.10;10.20;;;;;;;27.88;47.27;101647.00;4726188;30;20060;-85
2022/07/21 06:21:32;;;;;;;13.40;10.00;;;;;;;27.92;47.27;101669.63;4722776;30;20037;-85
2022/07/21 06:23:58;;;;;;;14.30;10.30;;;;;;;27.91;47.63;101676.84;4718708;30;20457;-88
2022/07/21 06:26:23;;;;;;;15.15;10.43;;;;;;;27.89;47.37;101664.72;4720218;30;20433;-87
2022/07/21 06:28:49;;;;;;;13.80;10.27;;;;;;;27.90;47.42;101664.50;4709507;30;20107;-87
2022/07/21 06:31:14;;;;;;;15.43;11.07;;;;;;;27.93;47.59;101682.00;4721131;30;20037;-87
2022/07/21 06:33:40;;;;;;;17.48;11.35;;;;;;;27.91;47.44;101684.06;4723952;30;20550;-87
2022/07/21 06:36:06;;;;;;;17.55;12.48;;;;;;;27.88;47.66;101685.31;4719346;30;20045;-87
2022/07/21 06:38:32;;;;;;;26.23;16.10;;;;;;;27.90;48.51;101685.09;4725048;30;20554;-87
2022/07/21 06:40:58;;;;;;;29.48;18.33;;;;;;;27.89;48.63;101691.47;4703554;30;20049;-87
2022/07/21 06:43:23;;;;;;;31.17;19.20;;;;;;;27.82;48.77;101682.63;4722918;30;20161;-87
2022/07/21 06:45:50;;;;;;;28.83;19.23;;;;;;;27.77;49.18;101675.25;4723181;30;20066;-87
2022/07/21 06:48:16;;;;;;;31.63;20.33;;;;;;;27.73;49.30;101681.25;4720207;30;20083;-88
2022/07/21 06:50:41;;;;;;;29.85;20.83;;;;;;;27.75;49.07;101692.56;4721287;30;20484;-90
2022/07/21 06:53:07;;;;;;;29.08;19.52;;;;;;;27.72;49.59;101703.69;4722287;30;20118;-88
2022/07/21 06:55:33;;;;;;;33.20;19.52;;;;;;;27.67;49.52;101707.00;4725629;30;20425;-87
2022/07/21 06:58:11;;;;;;;32.58;20.75;;;;;;;27.71;49.44;101716.25;4725603;30;20114;-88
2022/07/21 07:00:37;;;;;;;35.38;22.50;;;;;;;27.55;50.21;101711.34;4680427;30;20048;-89
2022/07/21 07:03:03;;;;;;;35.47;21.40;;;;;;;27.47;50.38;101700.84;4688883;30;20059;-88
2022/07/21 07:05:30;;;;;;;31.77;21.65;;;;;;;27.58;49.92;101706.38;4719254;30;20032;-83
2022/07/21 07:07:56;;;;;;;31.35;20.25;;;;;;;27.62;49.83;101701.41;4723391;30;20060;-85
2022/07/21 07:10:22;;;;;;;30.48;20.60;;;;;;;27.62;49.60;101707.59;4718131;30;20136;-87
2022/07/21 07:12:47;;;;;;;30.50;19.58;;;;;;;27.67;49.84;101697.13;4716174;30;20064;-88
2022/07/21 07:15:13;;;;;;;32.25;21.15;;;;;;;27.57;50.13;101707.41;4723896;30;20073;-88
2022/07/21 07:17:38;;;;;;;31.38;19.23;;;;;;;27.55;49.86;101696.09;4723934;30;20139;-85
2022/07/21 07:20:08;;;;;;;31.95;17.40;;;;;;;27.63;49.63;101695.06;4723312;30;20049;-87
2022/07/21 07:22:33;;;;;;;;;;;;;;;27.65;49.79;101693.03;4715490;30;20135;-90
2022/07/21 07:24:59;;;;;;;25.17;16.38;;;;;;;27.63;49.24;101685.19;4722973;30;20067;-89
2022/07/21 07:27:25;;;;;;;29.23;17.15;;;;;;;27.60;49.28;101682.91;4724683;30;20048;-88
2022/07/21 07:29:51;;;;;;;26.95;16.00;;;;;;;27.61;49.14;101691.75;4726159;30;20501;-89
2022/07/21 07:32:16;;;;;;;26.42;16.42;;;;;;;27.57;49.07;101677.97;4718308;30;20400;-89
2022/07/21 07:34:42;;;;;;;25.77;16.15;;;;;;;27.56;49.13;101678.19;4713196;30;20548;-88
2022/07/21 07:37:08;;;;;;;25.75;15.43;;;;;;;27.64;49.11;101689.50;4676872;30;20053;-89
2022/07/21 07:39:33;;;;;;;23.45;14.68;;;;;;;27.61;48.86;101681.06;4721730;30;20170;-89
2022/07/21 07:41:59;;;;;;;24.10;14.60;;;;;;;27.61;48.82;101697.94;4715413;30;20044;-88
2022/07/21 07:44:24;;;;;;;27.55;16.13;;;;;;;27.53;48.77;101683.97;4728258;30;20126;-88
2022/07/21 07:46:50;;;;;;;22.38;15.05;;;;;;;27.60;49.06;101704.31;4703272;30;20068;-89
2022/07/21 07:49:16;;;;;;;25.67;15.40;;;;;;;27.61;48.64;101697.94;4721110;30;20049;-89
2022/07/21 07:51:42;;;;;;;24.55;16.05;;;;;;;27.54;48.57;101693.63;4723926;30;20203;-89
2022/07/21 07:54:08;;;;;;;22.88;14.75;;;;;;;27.54;48.99;101705.16;4727063;30;20831;-89
2022/07/21 07:56:33;;;;;;;25.38;14.70;;;;;;;27.53;48.96;101698.16;4727410;30;20060;-88
2022/07/21 07:58:59;;;;;;;22.75;14.90;;;;;;;27.52;48.26;101699.19;4720949;30;20060;-89
2022/07/21 08:01:25;;;;;;;21.45;14.60;;;;;;;27.53;48.57;101697.34;4728753;30;20045;-89
2022/07/21 08:03:50;;;;;;;22.77;14.57;;;;;;;27.59;48.64;101716.03;4732354;30;20033;-89
2022/07/21 08:06:16;;;;;;;24.10;14.90;;;;;;;27.60;48.64;101708.84;4732178;30;20059;-89
2022/07/21 08:08:41;;;;;;;22.80;15.00;;;;;;;27.60;48.40;101703.50;4731604;30;20049;-89
2022/07/21 08:11:07;;;;;;;23.17;14.82;;;;;;;27.57;48.73;101701.25;4710624;30;20397;-88
2022/07/21 08:13:32;;;;;;;20.98;14.23;;;;;;;27.53;48.54;101683.97;4727721;30;20061;-89
2022/07/21 08:15:58;;;;;;;19.73;14.23;;;;;;;27.54;48.47;101683.75;4744227;30;20106;-90
2022/07/21 08:18:24;;;;;;;21.35;15.27;;;;;;;27.44;48.50;101674.53;4730900;30;20068;-90
2022/07/21 08:20:49;;;;;;;20.80;14.48;;;;;;;27.58;48.33;101698.34;4725954;30;20052;-89
2022/07/21 08:23:15;;;;;;;24.10;15.25;;;;;;;27.54;48.62;101682.94;4730137;30;20028;-89
2022/07/21 08:25:41;;;;;;;22.65;14.80;;;;;;;27.49;48.37;101669.38;4731330;30;20090;-90
2022/07/21 08:28:08;;;;;;;20.52;15.07;;;;;;;27.50;48.51;101676.38;4732463;30;20044;-90
2022/07/21 08:30:33;;;;;;;20.58;14.25;;;;;;;27.58;48.55;101693.00;4726030;30;20061;-89
2022/07/21 08:32:59;;;;;;;24.38;15.65;;;;;;;27.56;48.32;101692.41;4729406;30;20378;-89
2022/07/21 08:35:25;;;;;;;21.83;14.60;;;;;;;27.59;48.29;101689.28;4731193;30;20044;-89
2022/07/21 08:37:56;;;;;;;21.35;13.50;;;;;;;27.56;48.34;101684.38;4734230;30;20056;-89
2022/07/21 08:40:24;;;;;;;21.70;14.20;;;;;;;27.56;48.38;101683.53;4725591;30;20491;-89
2022/07/21 08:42:51;;;;;;;22.42;14.98;;;;;;;27.61;48.39;101695.25;4731070;30;20994;-89
2022/07/21 08:45:17;;;;;;;21.38;14.73;;;;;;;27.61;48.42;101697.09;4730750;30;20048;-88
2022/07/21 08:47:42;;;;;;;21.42;15.02;;;;;;;27.57;48.41;101679.84;4732373;30;20116;-88
2022/07/21 08:50:09;;;;;;;19.63;14.38;;;;;;;27.63;48.05;101695.06;4732829;30;20060;-89
2022/07/21 08:52:34;;;;;;;21.40;13.82;;;;;;;27.62;48.25;101696.88;4726252;30;20102;-90
2022/07/21 08:55:01;;;;;;;17.70;14.38;;;;;;;27.57;48.26;101686.00;4728689;30;20513;-89
2022/07/21 08:57:27;;;;;;;18.77;13.52;;;;;;;27.64;48.21;101696.72;4729508;30;20043;-89
2022/07/21 08:59:53;;;;;;;19.48;14.15;;;;;;;27.64;48.05;101696.72;4731624;30;20392;-90
2022/07/21 09:02:33;;;;;;;17.75;13.73;;;;;;;27.59;48.19;101688.47;4731804;30;20048;-89
2022/07/21 09:05:00;;;;;;;21.42;13.55;;;;;;;27.69;47.88;101699.59;4725007;30;20571;-89
2022/07/21 09:07:26;;;;;;;18.42;13.82;;;;;;;27.67;47.57;101699.00;4732599;30;20072;-89
2022/07/21 09:10:03;;;;;;;18.83;13.50;;;;;;;27.67;47.93;101702.47;4728723;30;20041;-89
2022/07/21 09:12:29;;;;;;;18.73;13.07;;;;;;;27.70;48.05;101701.25;4731492;30;20503;-89
2022/07/21 09:15:14;;;;;;;19.20;12.82;;;;;;;27.65;47.88;101683.16;4729323;30;20044;-90
2022/07/21 09:17:40;;;;;;;18.00;12.63;;;;;;;27.70;47.97;101685.19;4729248;30;20420;-90
2022/07/21 09:20:22;;;;;;;20.25;14.18;;;;;;;27.65;47.72;101680.47;4732724;30;20127;-90
2022/07/21 09:23:04;;;;;;;19.92;14.00;;;;;;;27.76;48.04;101694.22;4724948;30;20091;-89
2022/07/21 09:25:54;;;;;;;19.65;13.50;;;;;;;27.71;47.95;101678.78;4726215;30;20051;-90
2022/07/21 09:28:22;;;;;;;19.63;13.65;;;;;;;27.74;47.59;101686.41;4728461;30;20131;-89
2022/07/21 09:30:57;;;;;;;20.70;14.38;;;;;;;27.80;47.64;101701.59;4726033;30;20064;-89
2022/07/21 09:33:32;;;;;;;19.58;13.13;;;;;;;27.82;47.70;101696.03;4727538;30;20044;-90
2022/07/21 09:36:01;;;;;;;18.00;13.38;;;;;;;27.82;47.59;101696.03;4732291;30;20049;-89
2022/07/21 09:38:29;;;;;;;18.33;13.23;;;;;;;27.81;47.78;101699.75;4724953;30;20532;-89
2022/07/21 09:40:56;;;;;;;20.38;13.30;;;;;;;27.85;47.60;101700.97;4727087;30;20041;-90
2022/07/21 09:43:42;;;;;;;19.48;12.98;;;;;;;27.81;47.55;101697.06;4726486;30;20057;-90
2022/07/21 09:46:11;;;;;;;18.15;13.77;;;;;;;27.80;47.38;101685.53;4724587;30;20041;-89
2022/07/21 09:48:39;;;;;;;18.42;13.40;;;;;;;27.82;47.41;101698.69;4733520;30;20037;-89
2022/07/21 09:51:32;;;;;;;18.60;13.23;;;;;;;27.85;47.54;101698.31;4735194;30;20059;-90
2022/07/21 09:54:02;;;;;;;16.63;13.85;;;;;;;27.86;47.43;101699.94;4724525;30;20077;-89
2022/07/21 09:56:32;;;;;;;20.90;15.30;;;;;;;27.83;47.76;101708.38;4724319;30;20397;-90
2022/07/21 09:59:00;;;;;;;30.73;20.02;;;;;;;27.57;47.97;101709.25;4723367;30;20117;-92
2022/07/21 10:01:26;;;;;;;34.65;20.58;;;;;;;27.34;48.73;101710.56;4725490;30;20519;-91
2022/07/21 10:03:55;;;;;;;39.08;22.90;;;;;;;27.18;49.05;101694.13;4726666;30;20135;-90
2022/07/21 10:06:30;;;;;;;31.48;19.73;;;;;;;27.32;49.25;101706.47;4728339;30;20441;-90
2022/07/21 10:08:57;;;;;;;34.20;22.52;;;;;;;27.08;49.41;101694.53;4726558;30;20512;-92
2022/07/21 10:11:24;;;;;;;39.53;22.30;;;;;;;27.28;49.19;101714.03;4724709;30;20227;-91
2022/07/21 10:13:49;;;;;;;34.88;23.20;;;;;;;27.21;48.85;101691.84;4728984;30;20037;-92
2022/07/21 10:16:15;;;;;;;41.85;23.80;;;;;;;27.29;49.08;101715.72;4677352;30;20052;-85
2022/07/21 10:21:49;;;;;;;40.70;24.52;;;;;;;27.13;49.81;101705.47;5147339;27;20130;-70
2022/07/21 10:24:16;;;;;;;41.53;25.00;;;;;;;27.00;49.81;101711.63;5142283;27;20155;-70
2022/07/21 10:27:01;;;;;;;39.95;22.92;;;;;;;27.06;49.71;101708.13;5150084;27;20046;-70
2022/07/21 10:29:52;;;;;;;38.95;24.00;;;;;;;27.20;49.34;101708.09;5144959;27;20045;-70
2022/07/21 10:32:48;;;;;;;42.45;23.88;;;;;;;27.28;48.84;101713.22;5140491;27;20037;-70
2022/07/21 10:35:28;;;;;;;42.15;24.85;;;;;;;27.30;48.30;101705.84;5155040;27;20110;-70
2022/07/21 10:37:54;;;;;;;48.28;28.30;;;;;;;27.14;48.88;101706.28;5132413;27;20054;-70
2022/07/21 10:40:20;;;;;;;44.08;26.23;;;;;;;27.24;48.48;101712.81;5137298;27;20039;-69
2022/07/21 10:43:01;;;;;;;43.83;25.50;;;;;;;27.20;48.79;101716.94;5136681;27;20039;-69
2022/07/21 10:45:36;;;;;;;45.08;27.23;;;;;;;27.04;49.01;101712.84;5140880;27;20076;-69
2022/07/21 10:48:07;;;;;;;53.47;30.67;;;;;;;26.99;49.36;101723.31;5148827;27;20034;-70
2022/07/21 10:50:36;;;;;;;49.67;28.45;;;;;;;27.02;49.58;101722.09;5147655;27;20039;-70
2022/07/21 10:53:15;;;;;;;45.40;27.35;;;;;;;26.94;49.45;101707.09;5136523;27;20318;-70
2022/07/21 10:55:52;;;;;;;45.97;27.85;;;;;;;26.97;49.28;101719.22;5147106;27;21835;-70
2022/07/21 10:58:28;;;;;;;49.60;27.58;;;;;;;26.75;50.07;101716.75;5150257;27;20034;-70
2022/07/21 11:00:56;;;;;;;47.45;26.60;;;;;;;26.98;49.34;101718.19;5118542;27;20384;-70
2022/07/21 11:03:26;;;;;;;48.25;26.80;;;;;;;26.78;49.87;101713.66;5134624;27;20781;-70
2022/07/21 11:06:27;;;;;;;45.33;24.83;;;;;;;26.97;49.37;101719.22;5125986;27;20825;-71
2022/07/21 11:09:04;;;;;;;43.72;24.75;;;;;;;26.97;49.57;101727.22;5136142;27;20109;-71
2022/07/21 11:11:32;;;;;;;43.90;23.45;;;;;;;26.90;49.18;101721.03;5140800;27;20040;-71
2022/07/21 11:14:07;;;;;;;41.25;23.83;;;;;;;26.87;48.72;101721.47;5129629;27;20034;-71
2022/07/21 11:16:38;;;;;;;36.22;21.58;;;;;;;26.95;48.85;101716.75;5111799;27;20552;-70
2022/07/21 11:19:04;;;;;;;37.70;22.70;;;;;;;26.89;48.29;101714.06;5125249;27;20035;-71
2022/07/21 11:21:29;;;;;;;36.97;21.88;;;;;;;26.90;48.56;101711.16;5133484;27;20803;-70
2022/07/21 11:23:55;;;;;;;37.28;21.38;;;;;;;26.89;49.03;101708.72;5132953;27;20487;-71